Time;durP1;ratioP1;P1;durP2;ratioP2;P2;SDS_P1;SDS_P2;PMS_P1;PMS_P2;Temp;Humidity;BMP_temperature;BMP_pressure;BME280_temperature;BME280_humidity;BME280_pressure;Samples;Min_cycle;Max_cycle;Signal;HPM_P1;HPM_P2
2022/03/13 00:02:22;;;;;;;1.10;0.90;;;11.30;99.90;;;;;;6239976;23;20238;-92
2022/03/13 00:04:56;;;;;;;1.87;1.10;;;11.30;99.90;;;;;;6242302;23;20172;-88
2022/03/13 00:07:29;;;;;;;2.13;1.30;;;11.20;99.90;;;;;;6241090;23;20175;-93
2022/03/13 00:10:05;;;;;;;4.10;1.57;;;11.10;99.90;;;;;;6216029;23;20171;-92
2022/03/13 00:12:37;;;;;;;2.13;1.20;;;11.10;99.90;;;;;;6241227;23;20187;-92
2022/03/13 00:18:02;;;;;;;1.73;1.33;;;10.80;99.90;;;;;;6232503;23;20226;-92
2022/03/13 00:20:35;;;;;;;1.77;1.20;;;10.80;99.90;;;;;;6235543;23;20261;-92
2022/03/13 00:23:07;;;;;;;1.50;1.20;;;10.70;99.90;;;;;;6236606;23;20192;-93
2022/03/13 00:25:40;;;;;;;2.37;1.30;;;10.70;99.90;;;;;;6238075;23;20157;-91
2022/03/13 00:28:14;;;;;;;2.37;1.00;;;10.60;99.90;;;;;;6209777;23;20176;-93
2022/03/13 00:30:47;;;;;;;2.57;1.17;;;10.40;99.90;;;;;;6233545;23;20179;-92
2022/03/13 00:33:31;;;;;;;3.63;1.60;;;10.40;99.90;;;;;;6209082;23;20184;-93
2022/03/13 00:36:03;;;;;;;2.67;1.37;;;10.40;99.90;;;;;;6233947;23;20207;-93
2022/03/13 00:38:47;;;;;;;1.77;1.40;;;10.30;99.90;;;;;;6231497;23;20556;-92
2022/03/13 00:41:18;;;;;;;2.60;1.40;;;10.30;99.90;;;;;;6233984;23;20477;-93
2022/03/13 00:43:50;;;;;;;2.50;1.43;;;10.40;99.90;;;;;;6232061;23;20515;-93
2022/03/13 00:46:21;;;;;;;1.93;1.10;;;10.40;99.90;;;;;;6235701;23;20191;-91
2022/03/13 00:48:54;;;;;;;1.93;1.20;;;10.30;99.90;;;;;;6233859;23;20670;-93
2022/03/13 00:51:25;;;;;;;1.77;1.10;;;10.30;99.90;;;;;;6209506;23;20221;-93
2022/03/13 00:53:56;;;;;;;4.10;1.30;;;10.30;99.90;;;;;;6231854;23;20176;-93
2022/03/13 00:56:32;;;;;;;2.20;1.20;;;10.40;99.90;;;;;;6236041;23;20196;-94
2022/03/13 00:59:05;;;;;;;3.47;1.00;;;10.30;99.90;;;;;;6239381;23;20172;-90
2022/03/13 01:01:39;;;;;;;1.93;1.30;;;10.30;99.90;;;;;;6213459;23;20486;-94
2022/03/13 01:04:20;;;;;;;1.77;0.90;;;10.40;99.90;;;;;;6239528;23;20164;-94
2022/03/13 01:06:51;;;;;;;3.00;0.90;;;10.40;99.90;;;;;;6237351;23;20186;-94
2022/03/13 01:12:08;;;;;;;2.97;1.20;;;10.30;99.90;;;;;;6226838;23;20231;-92
2022/03/13 01:14:39;;;;;;;1.97;1.10;;;10.30;99.90;;;;;;6237966;23;20177;-92
2022/03/13 01:17:12;;;;;;;3.70;1.20;;;10.30;99.90;;;;;;6233243;23;20176;-92
2022/03/13 01:19:46;;;;;;;1.00;0.90;;;10.30;99.90;;;;;;6233482;23;20183;-91
2022/03/13 01:22:17;;;;;;;2.87;0.97;;;10.20;99.90;;;;;;6235599;23;20177;-90
2022/03/13 01:24:51;;;;;;;1.50;0.83;;;10.20;99.90;;;;;;6240954;23;20596;-90
2022/03/13 01:27:24;;;;;;;2.37;0.97;;;10.00;99.90;;;;;;6236738;23;20164;-92
2022/03/13 01:29:58;;;;;;;2.57;1.17;;;9.90;99.90;;;;;;6235411;23;20177;-92
2022/03/13 01:32:31;;;;;;;2.70;0.97;;;9.80;99.90;;;;;;6235487;23;20207;-91
2022/03/13 01:37:43;;;;;;;2.87;1.10;;;9.50;99.90;;;;;;6241224;23;20259;-92
2022/03/13 01:40:21;;;;;;;1.87;1.33;;;9.30;99.90;;;;;;6215383;23;20164;-92
2022/03/13 01:42:54;;;;;;;2.27;1.20;;;9.20;99.90;;;;;;6242386;23;20211;-90
2022/03/13 01:45:28;;;;;;;1.80;1.20;;;9.10;99.90;;;;;;6212451;22;21186;-91
2022/03/13 01:48:00;;;;;;;1.83;1.10;;;8.90;99.90;;;;;;6220224;23;20235;-89
2022/03/13 01:50:32;;;;;;;2.97;1.27;;;8.80;99.90;;;;;;6243655;23;20148;-92
2022/03/13 01:53:05;;;;;;;2.23;1.30;;;8.70;99.90;;;;;;6243251;23;20160;-92
2022/03/13 01:55:37;;;;;;;4.60;1.30;;;8.50;99.90;;;;;;6241547;23;20196;-92
2022/03/13 01:58:08;;;;;;;3.43;1.17;;;8.40;99.90;;;;;;6238499;23;20183;-91
2022/03/13 02:00:39;;;;;;;1.37;1.13;;;8.30;99.90;;;;;;6238710;23;20177;-91
2022/03/13 02:03:11;;;;;;;2.70;1.27;;;8.20;99.90;;;;;;6237192;23;20175;-92
2022/03/13 02:05:42;;;;;;;2.13;1.23;;;8.20;99.90;;;;;;6230891;23;20177;-92
2022/03/13 02:08:21;;;;;;;1.67;1.50;;;8.20;99.90;;;;;;6225760;23;20173;-93
2022/03/13 02:10:53;;;;;;;3.37;1.43;;;8.20;99.90;;;;;;6241124;23;20176;-92
2022/03/13 02:13:28;;;;;;;3.13;1.40;;;8.20;99.90;;;;;;6227024;23;20176;-93
2022/03/13 02:16:00;;;;;;;5.17;2.10;;;8.20;99.90;;;;;;6237491;23;20204;-93
2022/03/13 02:18:32;;;;;;;4.70;2.00;;;8.20;99.90;;;;;;6227955;23;20184;-92
2022/03/13 02:21:03;;;;;;;2.57;1.80;;;8.20;99.90;;;;;;6233834;23;20195;-92
2022/03/13 02:23:37;;;;;;;2.13;1.70;;;8.20;99.90;;;;;;6232837;23;20176;-92
2022/03/13 02:26:11;;;;;;;3.27;1.60;;;8.10;99.90;;;;;;6237093;23;20179;-93
2022/03/13 02:28:52;;;;;;;3.13;1.87;;;8.10;99.90;;;;;;6231811;23;20658;-92
2022/03/13 02:31:34;;;;;;;2.67;1.70;;;8.10;99.90;;;;;;6227108;23;20557;-93
2022/03/13 02:34:05;;;;;;;3.93;1.60;;;8.10;99.90;;;;;;6227390;23;20176;-94
2022/03/13 02:36:56;;;;;;;2.83;1.53;;;8.10;99.90;;;;;;6228191;23;20203;-93
2022/03/13 02:39:32;;;;;;;4.17;1.83;;;8.00;99.90;;;;;;6224801;23;20180;-92
2022/03/13 02:42:04;;;;;;;2.00;1.60;;;8.00;99.90;;;;;;6226239;23;20212;-92
2022/03/13 02:44:36;;;;;;;4.67;2.10;;;8.00;99.90;;;;;;6233929;23;20458;-92
2022/03/13 02:47:08;;;;;;;2.13;1.63;;;8.00;99.90;;;;;;6220376;23;20172;-92
2022/03/13 02:49:39;;;;;;;3.27;1.70;;;8.00;99.90;;;;;;6233301;23;20188;-92
2022/03/13 02:52:27;;;;;;;3.43;1.87;;;8.00;99.90;;;;;;6232662;23;20168;-91
2022/03/13 02:55:17;;;;;;;3.80;1.97;;;8.00;99.90;;;;;;6238872;23;20203;-92
2022/03/13 02:58:03;;;;;;;3.40;1.90;;;8.10;99.90;;;;;;6237576;23;20271;-92
2022/03/13 03:00:54;;;;;;;3.87;1.90;;;8.00;99.90;;;;;;6233855;23;20175;-93
2022/03/13 03:03:30;;;;;;;5.73;1.60;;;8.10;99.90;;;;;;6235974;23;20173;-92
2022/03/13 03:06:11;;;;;;;2.53;1.40;;;8.10;99.90;;;;;;6233338;23;20168;-93
2022/03/13 03:08:45;;;;;;;3.17;1.50;;;8.10;99.90;;;;;;6229019;23;20164;-90
2022/03/13 03:11:18;;;;;;;2.03;1.70;;;8.10;99.90;;;;;;6233797;23;20168;-92
2022/03/13 03:13:50;;;;;;;3.53;1.77;;;8.10;99.90;;;;;;6199286;23;20192;-92
2022/03/13 03:16:22;;;;;;;3.17;1.50;;;8.10;99.90;;;;;;6221553;23;20224;-92
2022/03/13 03:18:53;;;;;;;6.50;2.00;;;8.10;99.90;;;;;;6222426;23;20184;-92
2022/03/13 03:21:25;;;;;;;6.03;2.30;;;8.10;99.90;;;;;;6229449;23;20619;-92
2022/03/13 03:23:56;;;;;;;5.80;2.00;;;8.00;99.90;;;;;;6223817;23;20165;-92
2022/03/13 03:26:29;;;;;;;3.87;2.20;;;8.00;99.90;;;;;;6230505;23;20195;-92
2022/03/13 03:29:00;;;;;;;4.43;2.10;;;8.00;99.90;;;;;;6228608;23;20169;-92
2022/03/13 03:31:31;;;;;;;3.07;2.20;;;8.00;99.90;;;;;;6234973;23;20185;-91
2022/03/13 03:34:03;;;;;;;3.03;2.50;;;8.00;99.90;;;;;;6235953;23;20191;-91
2022/03/13 03:36:35;;;;;;;3.33;2.57;;;8.00;99.90;;;;;;6232975;23;20262;-92
2022/03/13 03:39:07;;;;;;;4.53;2.13;;;8.00;99.90;;;;;;6237046;23;20187;-92
2022/03/13 03:41:42;;;;;;;4.63;2.30;;;8.00;99.90;;;;;;6229889;23;20175;-92
2022/03/13 03:44:13;;;;;;;7.37;2.00;;;8.10;99.90;;;;;;6226971;23;20191;-92
2022/03/13 03:46:46;;;;;;;4.33;1.77;;;8.00;99.90;;;;;;6240186;23;20177;-92
2022/03/13 03:49:18;;;;;;;3.70;1.77;;;8.00;99.90;;;;;;6239324;23;20176;-92
2022/03/13 03:51:49;;;;;;;3.57;1.73;;;8.00;99.90;;;;;;6235711;23;20224;-92
2022/03/13 03:54:21;;;;;;;3.87;1.90;;;7.90;99.90;;;;;;6239687;23;20220;-92
2022/03/13 03:56:54;;;;;;;2.83;1.60;;;7.90;99.90;;;;;;6220811;23;20193;-95
2022/03/13 03:59:25;;;;;;;2.97;1.83;;;8.00;99.90;;;;;;6221853;23;20185;-92
2022/03/13 04:01:56;;;;;;;3.70;2.10;;;8.00;99.90;;;;;;6221189;23;20484;-92
2022/03/13 04:04:28;;;;;;;3.13;1.77;;;7.90;99.90;;;;;;6228129;23;20176;-93
2022/03/13 04:06:59;;;;;;;3.20;2.20;;;8.00;99.90;;;;;;6240160;23;20164;-94
2022/03/13 04:09:30;;;;;;;4.57;2.43;;;8.00;99.90;;;;;;6239039;23;20190;-93
2022/03/13 04:12:05;;;;;;;3.27;2.13;;;8.00;99.90;;;;;;6237936;23;20227;-93
2022/03/13 04:14:38;;;;;;;3.83;1.90;;;8.00;99.90;;;;;;6242451;23;20182;-93
2022/03/13 04:17:17;;;;;;;3.80;2.20;;;8.00;99.90;;;;;;6240022;23;20249;-92
2022/03/13 04:19:49;;;;;;;3.17;2.13;;;8.00;99.90;;;;;;6212346;23;20180;-92
2022/03/13 04:22:19;;;;;;;5.13;2.17;;;8.00;99.90;;;;;;6224852;23;20180;-92
2022/03/13 04:24:51;;;;;;;2.77;1.97;;;7.90;99.90;;;;;;6232872;23;20205;-92
2022/03/13 04:27:24;;;;;;;2.87;2.10;;;7.90;99.90;;;;;;6187574;23;20175;-90
2022/03/13 04:29:54;;;;;;;3.23;2.00;;;7.90;99.90;;;;;;6239563;23;20172;-93
2022/03/13 04:32:25;;;;;;;3.77;2.17;;;7.90;99.90;;;;;;6237056;23;20193;-93
2022/03/13 04:34:56;;;;;;;2.77;2.27;;;7.90;99.90;;;;;;6224523;23;20183;-91
2022/03/13 04:37:28;;;;;;;3.17;2.03;;;7.90;99.90;;;;;;6229221;23;20235;-91
2022/03/13 04:39:59;;;;;;;3.10;1.93;;;7.80;99.90;;;;;;6226819;23;20229;-92
2022/03/13 04:42:34;;;;;;;3.40;1.97;;;7.80;99.90;;;;;;6219246;23;20230;-92
2022/03/13 04:45:06;;;;;;;3.60;1.77;;;7.90;99.90;;;;;;6220713;23;20187;-93
2022/03/13 04:47:37;;;;;;;2.93;2.20;;;7.90;99.90;;;;;;6219310;23;20639;-91
2022/03/13 04:50:09;;;;;;;2.27;1.80;;;7.90;99.90;;;;;;6219848;23;20276;-92
2022/03/13 04:52:41;;;;;;;2.20;1.87;;;7.80;99.90;;;;;;6219714;23;20622;-92
2022/03/13 04:55:13;;;;;;;3.57;2.00;;;7.80;99.90;;;;;;6230798;23;20184;-92
2022/03/13 04:57:46;;;;;;;4.03;2.00;;;7.80;99.90;;;;;;6231559;23;20200;-92
2022/03/13 05:00:18;;;;;;;2.97;1.90;;;7.80;99.90;;;;;;6221938;23;20186;-92
2022/03/13 05:02:49;;;;;;;2.17;1.70;;;7.80;99.90;;;;;;6221545;23;20192;-92
2022/03/13 05:05:20;;;;;;;4.57;2.10;;;7.80;99.90;;;;;;6219679;23;20610;-93
2022/03/13 05:07:52;;;;;;;3.53;1.93;;;7.90;99.90;;;;;;6218136;23;20173;-92
2022/03/13 05:10:24;;;;;;;3.67;1.97;;;7.80;99.90;;;;;;6219454;23;20248;-91
2022/03/13 05:12:57;;;;;;;2.63;2.10;;;7.80;99.90;;;;;;6230976;23;20175;-92
2022/03/13 05:15:28;;;;;;;2.57;2.00;;;7.80;99.90;;;;;;6225291;23;20555;-92
2022/03/13 05:18:00;;;;;;;2.70;1.77;;;7.90;99.90;;;;;;6224692;23;20204;-92
2022/03/13 05:20:35;;;;;;;2.50;1.60;;;7.90;99.90;;;;;;6206599;23;20172;-92
2022/03/13 05:23:09;;;;;;;2.23;1.60;;;7.90;99.90;;;;;;6227935;23;20172;-92
2022/03/13 05:25:42;;;;;;;2.80;1.70;;;7.90;99.90;;;;;;6233719;23;20179;-92
2022/03/13 05:28:18;;;;;;;4.53;1.80;;;7.80;99.90;;;;;;6232657;23;20195;-92
2022/03/13 05:33:33;;;;;;;2.20;1.50;;;7.70;99.90;;;;;;6238530;23;20187;-91
2022/03/13 05:36:07;;;;;;;3.27;1.57;;;7.70;99.90;;;;;;6240704;23;20168;-89
2022/03/13 05:38:39;;;;;;;2.57;1.77;;;7.70;99.90;;;;;;6240495;23;20215;-90
2022/03/13 05:41:23;;;;;;;1.60;1.50;;;7.70;99.90;;;;;;6227608;23;20250;-91
2022/03/13 05:43:57;;;;;;;3.17;1.83;;;7.70;99.90;;;;;;6205849;23;20177;-91
2022/03/13 05:46:28;;;;;;;3.07;1.60;;;7.80;99.90;;;;;;6209328;23;20180;-90
2022/03/13 05:48:58;;;;;;;2.23;2.00;;;7.80;99.90;;;;;;6229434;23;20201;-91
2022/03/13 05:51:35;;;;;;;2.60;1.37;;;7.70;99.90;;;;;;6223901;23;20183;-92
2022/03/13 05:54:10;;;;;;;1.70;1.40;;;7.80;99.90;;;;;;6236516;23;20488;-92
2022/03/13 05:56:45;;;;;;;3.83;1.50;;;7.80;99.90;;;;;;6240388;23;20182;-92
2022/03/13 05:59:20;;;;;;;2.50;1.40;;;7.70;99.90;;;;;;6224751;23;20200;-91
2022/03/13 06:01:51;;;;;;;3.50;1.50;;;7.80;99.90;;;;;;6233416;23;20260;-92
2022/03/13 06:04:24;;;;;;;3.10;1.77;;;7.80;99.90;;;;;;6219424;23;20176;-92
2022/03/13 06:06:55;;;;;;;2.33;1.53;;;7.70;99.90;;;;;;6219076;23;20197;-91
2022/03/13 06:09:26;;;;;;;2.20;1.63;;;7.70;99.90;;;;;;6229547;23;20176;-92
2022/03/13 06:11:58;;;;;;;1.53;1.43;;;7.70;99.90;;;;;;6220923;23;20925;-92
2022/03/13 06:14:31;;;;;;;1.60;1.50;;;7.70;99.90;;;;;;6223259;23;20207;-92
2022/03/13 06:17:02;;;;;;;3.33;1.23;;;7.70;99.90;;;;;;6196308;23;20172;-92
2022/03/13 06:19:34;;;;;;;1.80;1.30;;;7.70;99.90;;;;;;6197618;23;20220;-92
2022/03/13 06:22:05;;;;;;;3.47;1.50;;;7.80;99.90;;;;;;6222201;23;20169;-92
2022/03/13 06:24:36;;;;;;;2.03;1.43;;;7.80;99.90;;;;;;6196799;23;20501;-91
2022/03/13 06:27:07;;;;;;;2.30;1.60;;;7.70;99.90;;;;;;6223513;23;20175;-92
2022/03/13 06:29:41;;;;;;;1.73;1.33;;;7.80;99.90;;;;;;6207810;23;20161;-91
2022/03/13 06:32:12;;;;;;;3.17;1.77;;;7.70;99.90;;;;;;6242547;23;20187;-92
2022/03/13 06:34:43;;;;;;;1.90;1.40;;;7.70;99.90;;;;;;6242785;23;20203;-91
2022/03/13 06:37:14;;;;;;;2.70;1.70;;;7.70;99.90;;;;;;6201355;23;20185;-91
2022/03/13 06:39:45;;;;;;;1.40;1.30;;;7.70;99.90;;;;;;6220548;23;20200;-93
2022/03/13 06:42:16;;;;;;;2.77;1.27;;;7.70;99.90;;;;;;6220670;23;20168;-92
2022/03/13 06:44:49;;;;;;;1.70;1.50;;;7.70;99.90;;;;;;6220708;23;20165;-92
2022/03/13 06:47:20;;;;;;;1.47;1.30;;;7.70;99.90;;;;;;6219568;23;20201;-93
2022/03/13 06:49:51;;;;;;;3.80;1.67;;;7.70;99.90;;;;;;6219892;23;20181;-91
2022/03/13 06:52:22;;;;;;;2.43;1.40;;;7.70;99.90;;;;;;6221211;23;20168;-92
2022/03/13 06:54:53;;;;;;;1.90;1.40;;;7.70;99.90;;;;;;6220110;23;20169;-92
2022/03/13 06:57:24;;;;;;;3.40;1.47;;;7.70;99.90;;;;;;6219120;23;20188;-91
2022/03/13 06:59:57;;;;;;;2.07;1.33;;;7.60;99.90;;;;;;6218467;23;20230;-93
2022/03/13 07:02:29;;;;;;;2.70;1.70;;;7.70;99.90;;;;;;6220318;23;20471;-92
2022/03/13 07:05:00;;;;;;;1.70;1.30;;;7.70;99.90;;;;;;6220165;23;20272;-92
2022/03/13 07:07:31;;;;;;;2.00;1.40;;;7.60;99.90;;;;;;6219874;23;20168;-93
2022/03/13 07:10:04;;;;;;;3.17;1.40;;;7.60;99.90;;;;;;6220161;23;20226;-92
2022/03/13 07:12:34;;;;;;;4.53;1.37;;;7.50;99.90;;;;;;6219955;23;20210;-92
2022/03/13 07:15:10;;;;;;;2.53;1.83;;;7.50;99.90;;;;;;6219029;23;20183;-92
2022/03/13 07:17:41;;;;;;;2.23;1.33;;;7.50;99.90;;;;;;6218461;23;20180;-92
2022/03/13 07:20:13;;;;;;;1.83;1.37;;;7.50;99.90;;;;;;6226998;23;20199;-92
2022/03/13 07:22:45;;;;;;;1.53;1.30;;;7.40;99.90;;;;;;6221992;23;20195;-92
2022/03/13 07:25:16;;;;;;;1.73;1.30;;;7.50;99.90;;;;;;6222416;23;20179;-92
2022/03/13 07:27:47;;;;;;;3.07;1.67;;;7.40;99.90;;;;;;6220798;23;20180;-91
2022/03/13 07:30:19;;;;;;;1.57;1.10;;;7.40;99.90;;;;;;6219331;23;20220;-91
2022/03/13 07:32:51;;;;;;;1.40;1.30;;;7.40;99.90;;;;;;6219346;23;20176;-91
2022/03/13 07:35:21;;;;;;;1.20;0.90;;;7.40;99.90;;;;;;6221921;23;20180;-92
2022/03/13 07:37:52;;;;;;;1.70;1.23;;;7.40;99.90;;;;;;6220582;23;20641;-91
2022/03/13 07:40:24;;;;;;;1.23;1.10;;;7.40;99.90;;;;;;6194299;23;20203;-91
2022/03/13 07:42:55;;;;;;;3.93;1.30;;;7.40;99.90;;;;;;6193389;23;20182;-91
2022/03/13 07:45:27;;;;;;;1.30;1.13;;;7.40;99.90;;;;;;6219698;23;20202;-92
2022/03/13 07:47:59;;;;;;;1.17;1.07;;;7.40;99.90;;;;;;6220019;23;20246;-93
2022/03/13 07:50:31;;;;;;;1.50;1.30;;;7.40;99.90;;;;;;6219752;23;20248;-93
2022/03/13 07:53:03;;;;;;;1.27;1.17;;;7.40;99.90;;;;;;6219395;23;20199;-92
2022/03/13 07:55:34;;;;;;;2.23;1.30;;;7.40;99.90;;;;;;6219785;23;20172;-92
2022/03/13 07:58:05;;;;;;;2.47;1.30;;;7.40;99.90;;;;;;6218887;23;20246;-93
2022/03/13 08:00:39;;;;;;;2.10;1.33;;;7.40;99.90;;;;;;6219248;23;20223;-93
2022/03/13 08:03:11;;;;;;;2.10;1.37;;;7.30;99.90;;;;;;6219791;23;20242;-91
2022/03/13 08:05:42;;;;;;;2.23;1.40;;;7.30;99.90;;;;;;6222411;23;20172;-91
2022/03/13 08:08:13;;;;;;;2.03;1.50;;;7.30;99.90;;;;;;6221050;23;20223;-91
2022/03/13 08:10:45;;;;;;;1.20;1.00;;;7.30;99.90;;;;;;6221699;23;20623;-91
2022/03/13 08:13:16;;;;;;;1.43;1.33;;;7.30;99.90;;;;;;6219203;23;20193;-91
2022/03/13 08:15:49;;;;;;;1.30;1.20;;;7.30;99.90;;;;;;6196549;23;20163;-93
2022/03/13 08:18:20;;;;;;;2.20;1.10;;;7.30;99.90;;;;;;6218617;23;20576;-92
2022/03/13 08:20:51;;;;;;;1.17;1.00;;;7.30;99.90;;;;;;6222494;23;20250;-91
2022/03/13 08:23:22;;;;;;;2.60;1.20;;;7.30;99.90;;;;;;6219991;23;20196;-91
2022/03/13 08:25:53;;;;;;;1.40;1.17;;;7.30;99.90;;;;;;6225799;23;20173;-91
2022/03/13 08:28:24;;;;;;;1.10;1.00;;;7.30;99.90;;;;;;6220938;23;20528;-91
2022/03/13 08:31:01;;;;;;;1.97;1.20;;;7.40;99.90;;;;;;6219232;23;20199;-91
2022/03/13 08:33:32;;;;;;;1.10;1.00;;;7.40;99.90;;;;;;6219961;23;20611;-92
2022/03/13 08:36:04;;;;;;;1.47;1.13;;;7.40;99.90;;;;;;6219850;23;20187;-90
2022/03/13 08:38:35;;;;;;;1.67;0.90;;;7.50;99.90;;;;;;6219044;23;20208;-92
2022/03/13 08:41:06;;;;;;;1.77;1.10;;;7.50;99.90;;;;;;6222142;23;20200;-92
2022/03/13 08:43:37;;;;;;;1.57;1.00;;;7.50;99.90;;;;;;6225399;23;20172;-92
2022/03/13 08:46:12;;;;;;;1.17;1.00;;;7.60;99.90;;;;;;6241881;23;20177;-91
2022/03/13 08:48:43;;;;;;;1.50;0.93;;;7.50;99.90;;;;;;6241223;23;20175;-93
2022/03/13 08:51:15;;;;;;;1.67;1.03;;;7.50;99.90;;;;;;6231132;23;20510;-92
2022/03/13 08:53:46;;;;;;;3.10;1.10;;;7.40;99.90;;;;;;6221043;23;20234;-91
2022/03/13 08:56:18;;;;;;;0.93;0.83;;;7.40;99.90;;;;;;6221006;23;20247;-92
2022/03/13 08:58:49;;;;;;;2.27;1.17;;;7.30;99.90;;;;;;6228132;23;20215;-92
2022/03/13 09:01:25;;;;;;;1.63;1.10;;;7.30;99.90;;;;;;6225645;23;20173;-93
2022/03/13 09:03:57;;;;;;;2.53;0.90;;;7.30;99.90;;;;;;6219890;23;20195;-91
2022/03/13 09:06:28;;;;;;;2.90;1.07;;;7.30;99.90;;;;;;6228233;23;20195;-92
2022/03/13 09:09:00;;;;;;;4.30;1.27;;;7.30;99.90;;;;;;6193807;23;20248;-93
2022/03/13 09:11:34;;;;;;;1.20;0.90;;;7.40;99.90;;;;;;6221209;23;20176;-93
2022/03/13 09:14:05;;;;;;;2.87;1.03;;;7.30;99.90;;;;;;6221336;23;20184;-92
2022/03/13 09:16:39;;;;;;;1.00;0.90;;;7.30;99.90;;;;;;6221326;23;20177;-93
2022/03/13 09:19:10;;;;;;;1.63;0.80;;;7.30;99.90;;;;;;6233981;23;20240;-90
2022/03/13 09:21:42;;;;;;;1.43;1.10;;;7.30;99.90;;;;;;6242155;23;20261;-91
2022/03/13 09:24:28;;;;;;;2.33;1.10;;;7.30;99.90;;;;;;6241540;23;20251;-92
2022/03/13 09:26:59;;;;;;;1.60;1.17;;;7.30;99.90;;;;;;6241408;23;20168;-96
2022/03/13 09:29:30;;;;;;;1.60;1.00;;;7.40;99.90;;;;;;6241939;23;20175;-90
2022/03/13 09:32:04;;;;;;;0.90;0.73;;;7.50;99.90;;;;;;6241306;23;20181;-93
2022/03/13 09:34:36;;;;;;;1.50;0.97;;;7.50;99.90;;;;;;6241830;23;20157;-92
2022/03/13 09:37:07;;;;;;;2.30;1.20;;;7.50;99.90;;;;;;6240960;23;20173;-93
2022/03/13 09:39:38;;;;;;;1.67;1.23;;;7.50;99.90;;;;;;6238504;23;20208;-90
2022/03/13 09:42:09;;;;;;;1.50;1.30;;;7.50;99.90;;;;;;6239683;23;20164;-89
2022/03/13 09:44:41;;;;;;;2.93;1.13;;;7.50;99.90;;;;;;6242055;23;20168;-92
2022/03/13 09:47:15;;;;;;;2.30;1.23;;;7.50;99.90;;;;;;6213595;23;20187;-91
2022/03/13 09:49:48;;;;;;;1.93;1.40;;;7.50;99.90;;;;;;6240112;23;20183;-92
2022/03/13 09:52:19;;;;;;;2.30;0.90;;;7.50;99.90;;;;;;6241444;23;20173;-91
2022/03/13 09:54:50;;;;;;;0.90;0.80;;;7.50;99.90;;;;;;6240727;23;20161;-89
2022/03/13 09:57:21;;;;;;;2.10;1.00;;;7.60;99.90;;;;;;6239025;23;20177;-92
2022/03/13 09:59:52;;;;;;;2.33;1.03;;;7.60;99.90;;;;;;6239678;23;20192;-93
2022/03/13 10:02:36;;;;;;;2.23;1.33;;;7.50;99.90;;;;;;6238981;23;20181;-92
2022/03/13 10:05:10;;;;;;;2.97;1.67;;;7.50;99.90;;;;;;6237332;23;20179;-92
2022/03/13 10:07:58;;;;;;;3.17;1.47;;;7.40;99.90;;;;;;6228260;23;20192;-93
2022/03/13 10:10:31;;;;;;;2.70;1.70;;;7.40;99.90;;;;;;6227821;23;20172;-91
2022/03/13 10:13:03;;;;;;;2.40;1.50;;;7.30;99.90;;;;;;6215095;23;20156;-91
2022/03/13 10:15:44;;;;;;;3.63;1.63;;;7.30;99.90;;;;;;6239914;23;20177;-91
2022/03/13 10:18:20;;;;;;;1.43;1.30;;;7.20;99.90;;;;;;6240076;23;20192;-91
2022/03/13 10:20:52;;;;;;;3.83;1.50;;;7.10;99.90;;;;;;6230851;23;20196;-92
2022/03/13 10:23:23;;;;;;;1.80;1.50;;;7.10;99.90;;;;;;6232812;23;20153;-90
2022/03/13 10:25:55;;;;;;;1.73;1.40;;;7.10;99.90;;;;;;6240389;23;20175;-92
2022/03/13 10:28:28;;;;;;;1.37;1.20;;;7.10;99.90;;;;;;6239568;23;20175;-92
2022/03/13 10:31:12;;;;;;;2.40;1.10;;;7.10;99.90;;;;;;6224969;23;20243;-93
2022/03/13 10:34:02;;;;;;;2.30;0.90;;;7.00;99.90;;;;;;6226051;23;20260;-90
2022/03/13 10:36:35;;;;;;;1.93;1.13;;;7.10;99.90;;;;;;6197520;23;20231;-92
2022/03/13 10:39:18;;;;;;;2.20;1.20;;;7.00;99.90;;;;;;6212664;23;20176;-93
2022/03/13 10:41:59;;;;;;;1.97;1.27;;;7.00;99.90;;;;;;6241763;23;20274;-92
2022/03/13 10:44:34;;;;;;;1.40;1.10;;;7.00;99.90;;;;;;6242414;23;20160;-89
2022/03/13 10:47:10;;;;;;;1.13;0.90;;;7.00;99.90;;;;;;6229217;23;20178;-92
2022/03/13 10:49:45;;;;;;;1.00;0.90;;;6.90;99.90;;;;;;6223773;23;20488;-92
2022/03/13 10:52:26;;;;;;;0.87;0.70;;;6.90;99.90;;;;;;6223037;23;20171;-90
2022/03/13 10:55:20;;;;;;;1.67;1.10;;;6.90;99.90;;;;;;6221596;23;20179;-93
2022/03/13 10:57:53;;;;;;;1.57;0.60;;;6.90;99.90;;;;;;6222388;23;20553;-92
2022/03/13 11:00:27;;;;;;;1.00;0.60;;;6.80;99.90;;;;;;6232457;23;20232;-92
2022/03/13 11:03:13;;;;;;;1.30;0.63;;;6.80;99.90;;;;;;6243021;23;20248;-92
2022/03/13 11:05:49;;;;;;;0.80;0.50;;;6.90;99.90;;;;;;6241919;23;20224;-93
2022/03/13 11:08:20;;;;;;;0.80;0.80;;;6.80;99.90;;;;;;6222469;23;20188;-91
2022/03/13 11:10:52;;;;;;;0.70;0.40;;;6.80;99.90;;;;;;6223316;23;20180;-91
2022/03/13 11:13:26;;;;;;;1.13;0.60;;;6.80;99.90;;;;;;6196386;23;20176;-91
2022/03/13 11:15:58;;;;;;;0.83;0.60;;;6.80;99.90;;;;;;6197108;23;20164;-91
2022/03/13 11:18:33;;;;;;;0.93;0.57;;;6.80;99.90;;;;;;6220773;23;20176;-93
2022/03/13 11:21:08;;;;;;;1.80;0.53;;;6.70;99.90;;;;;;6195699;23;20246;-91
2022/03/13 11:23:39;;;;;;;0.90;0.50;;;6.70;99.90;;;;;;6220887;23;20180;-91
2022/03/13 11:26:11;;;;;;;0.77;0.70;;;6.70;99.90;;;;;;6220547;23;20207;-92
2022/03/13 11:28:45;;;;;;;1.83;0.70;;;6.70;99.90;;;;;;6220693;23;20619;-92
2022/03/13 11:31:36;;;;;;;1.20;0.60;;;6.70;99.90;;;;;;6220564;23;20176;-91
2022/03/13 11:34:14;;;;;;;0.30;0.30;;;6.70;99.90;;;;;;6220791;23;20710;-93
2022/03/13 11:36:48;;;;;;;2.50;1.00;;;6.80;99.90;;;;;;6220604;23;20232;-92
2022/03/13 11:39:28;;;;;;;2.27;0.70;;;6.80;99.90;;;;;;6221353;23;20234;-92
2022/03/13 11:41:59;;;;;;;0.93;0.47;;;6.80;99.90;;;;;;6221337;23;20673;-93
2022/03/13 11:44:43;;;;;;;1.03;0.50;;;6.80;99.90;;;;;;6224992;23;20495;-92
2022/03/13 11:47:26;;;;;;;0.70;0.70;;;6.80;99.90;;;;;;6222362;23;20180;-92
2022/03/13 11:49:57;;;;;;;0.90;0.67;;;6.70;99.90;;;;;;6224327;23;20168;-91
2022/03/13 11:52:32;;;;;;;1.27;0.50;;;6.70;99.90;;;;;;6240696;23;20247;-91
2022/03/13 11:55:04;;;;;;;1.43;0.60;;;6.70;99.90;;;;;;6240368;23;20175;-89
2022/03/13 11:57:50;;;;;;;1.27;0.60;;;6.60;99.90;;;;;;6222374;23;20175;-92
2022/03/13 12:00:32;;;;;;;1.70;0.50;;;6.60;99.90;;;;;;6222045;23;20180;-91
2022/03/13 12:03:12;;;;;;;0.57;0.57;;;6.50;99.90;;;;;;6224506;23;20536;-91
2022/03/13 12:05:55;;;;;;;1.33;0.73;;;6.40;99.90;;;;;;6220169;23;20172;-91
2022/03/13 12:08:49;;;;;;;0.83;0.50;;;6.30;99.90;;;;;;6189962;23;20170;-91
2022/03/13 12:11:43;;;;;;;0.77;0.50;;;6.20;99.90;;;;;;6191586;23;20204;-92
2022/03/13 12:14:15;;;;;;;2.23;0.60;;;6.10;99.90;;;;;;6192889;23;20169;-91
2022/03/13 12:16:48;;;;;;;1.33;0.80;;;6.00;99.90;;;;;;6191732;23;20169;-91
2022/03/13 12:19:19;;;;;;;0.80;0.47;;;5.90;99.90;;;;;;6195463;23;20195;-91
2022/03/13 12:21:51;;;;;;;0.97;0.70;;;5.80;99.90;;;;;;6193665;23;20232;-92
2022/03/13 12:24:26;;;;;;;0.87;0.60;;;5.70;99.90;;;;;;6190291;23;20177;-92
2022/03/13 12:27:05;;;;;;;1.70;0.50;;;5.60;99.90;;;;;;6167296;23;20176;-95
2022/03/13 12:29:36;;;;;;;1.17;0.60;;;5.50;99.90;;;;;;6164355;23;20180;-92
2022/03/13 12:32:12;;;;;;;0.93;0.70;;;5.50;99.90;;;;;;6190264;23;20201;-92
2022/03/13 12:34:44;;;;;;;0.60;0.60;;;5.40;99.90;;;;;;6190716;23;20169;-92
2022/03/13 12:37:15;;;;;;;4.13;0.87;;;5.30;99.90;;;;;;6188446;23;20197;-92
2022/03/13 12:39:57;;;;;;;0.90;0.80;;;5.30;99.90;;;;;;6190757;23;20199;-92
2022/03/13 12:42:33;;;;;;;2.37;0.70;;;5.20;99.90;;;;;;6194558;23;20219;-92
2022/03/13 12:45:12;;;;;;;1.93;0.77;;;5.20;99.90;;;;;;6190157;23;20577;-91
2022/03/13 12:47:47;;;;;;;1.63;0.70;;;5.10;99.90;;;;;;6189035;23;20181;-91
2022/03/13 12:50:19;;;;;;;1.77;0.73;;;5.10;99.90;;;;;;6190105;23;20692;-91
2022/03/13 12:52:58;;;;;;;1.23;0.67;;;5.10;99.90;;;;;;6189713;23;20208;-92
2022/03/13 12:55:31;;;;;;;1.17;0.70;;;5.10;99.90;;;;;;6189523;23;20169;-92
2022/03/13 12:58:03;;;;;;;1.80;0.80;;;5.00;99.90;;;;;;6188892;23;20551;-91
2022/03/13 13:00:35;;;;;;;1.20;0.90;;;5.00;99.90;;;;;;6189419;23;20497;-93
2022/03/13 13:03:07;;;;;;;2.53;1.20;;;5.00;99.90;;;;;;6189329;23;20223;-93
2022/03/13 13:05:38;;;;;;;1.60;0.90;;;5.00;99.90;;;;;;6189923;23;20176;-91
2022/03/13 13:08:10;;;;;;;0.80;0.70;;;5.00;99.90;;;;;;6216640;23;20195;-91
2022/03/13 13:10:43;;;;;;;1.40;0.70;;;5.00;99.90;;;;;;6223205;23;20525;-92
2022/03/13 13:13:26;;;;;;;1.37;0.70;;;5.00;99.90;;;;;;6220642;23;20181;-91
2022/03/13 13:15:58;;;;;;;3.03;0.90;;;4.90;99.90;;;;;;6235874;23;20188;-92
2022/03/13 13:18:29;;;;;;;1.43;0.80;;;4.90;99.90;;;;;;6215714;23;20207;-91
2022/03/13 13:21:10;;;;;;;0.87;0.80;;;4.90;99.90;;;;;;6240654;23;20176;-92
2022/03/13 13:23:45;;;;;;;1.00;0.90;;;4.80;99.90;;;;;;6227214;23;20165;-91
2022/03/13 13:26:18;;;;;;;1.90;0.80;;;4.90;99.90;;;;;;6227325;23;20164;-92
2022/03/13 13:28:59;;;;;;;0.87;0.70;;;5.00;99.90;;;;;;6221139;23;20203;-93
2022/03/13 13:31:30;;;;;;;1.80;0.80;;;5.00;99.90;;;;;;6221533;23;20200;-92
2022/03/13 13:34:15;;;;;;;1.20;0.63;;;5.10;99.90;;;;;;6220906;23;20179;-92
2022/03/13 13:36:47;;;;;;;1.90;0.73;;;5.20;99.90;;;;;;6221857;23;20180;-92
2022/03/13 13:39:24;;;;;;;1.67;0.80;;;5.20;99.90;;;;;;6220814;23;20176;-92
2022/03/13 13:42:02;;;;;;;2.50;0.70;;;5.30;99.90;;;;;;6221551;23;20227;-91